createdAt,value
2022-12-11T00:01:26.878Z,55.53
2022-12-11T00:03:53.416Z,56.72
2022-12-11T00:06:22.109Z,57.58
2022-12-11T00:08:53.226Z,59.24
2022-12-11T00:11:20.563Z,59.52
2022-12-11T00:13:46.904Z,59.74
2022-12-11T00:16:14.879Z,61.29
2022-12-11T00:18:41.764Z,61.04
2022-12-11T00:21:11.751Z,61.27
2022-12-11T00:23:38.624Z,61.59
2022-12-11T00:26:07.070Z,62.81
2022-12-11T00:28:33.691Z,66.57
2022-12-11T00:31:04.625Z,66.64
2022-12-11T00:33:31.006Z,60.30
2022-12-11T00:35:57.373Z,54.57
2022-12-11T00:38:24.040Z,51.92
2022-12-11T00:40:50.666Z,54.02
2022-12-11T00:43:17.149Z,55.80
2022-12-11T00:45:45.503Z,56.77
2022-12-11T00:48:12.678Z,56.61
2022-12-11T00:50:39.654Z,56.94
2022-12-11T00:53:06.695Z,58.65
2022-12-11T00:55:37.583Z,59.00
2022-12-11T00:58:04.098Z,60.11
2022-12-11T01:00:30.605Z,60.25
2022-12-11T01:02:57.022Z,61.09
2022-12-11T01:05:23.417Z,60.98
2022-12-11T01:07:49.813Z,62.43
2022-12-11T01:10:25.657Z,67.45
2022-12-11T01:12:59.836Z,65.16
2022-12-11T01:15:32.175Z,60.16
2022-12-11T01:17:58.890Z,52.84
2022-12-11T01:20:27.558Z,51.88
2022-12-11T01:22:55.604Z,51.96
2022-12-11T01:25:22.032Z,53.25
2022-12-11T01:27:53.290Z,55.37
2022-12-11T01:30:20.604Z,55.37
2022-12-11T01:32:47.298Z,56.92
2022-12-11T01:35:14.324Z,56.99
2022-12-11T01:37:41.106Z,59.08
2022-12-11T01:40:09.063Z,58.87
2022-12-11T01:42:35.462Z,59.54
2022-12-11T01:45:20.836Z,59.78
2022-12-11T01:48:11.388Z,60.59
2022-12-11T01:50:42.190Z,61.42
2022-12-11T01:53:11.985Z,67.01
2022-12-11T01:55:39.338Z,66.84
2022-12-11T01:58:06.336Z,60.44
2022-12-11T02:00:32.711Z,53.59
2022-12-11T02:02:59.057Z,52.63
2022-12-11T02:05:25.455Z,54.24
2022-12-11T02:07:57.769Z,54.34
2022-12-11T02:10:24.174Z,55.61
2022-12-11T02:12:56.036Z,55.72
2022-12-11T02:15:33.042Z,57.25
2022-12-11T02:18:20.016Z,58.55
2022-12-11T02:20:55.436Z,58.60
2022-12-11T02:23:58.291Z,61.05
2022-12-11T02:26:48.927Z,61.04
2022-12-11T02:29:22.588Z,66.63
2022-12-11T02:32:03.311Z,65.45
2022-12-11T02:34:45.079Z,57.75
2022-12-11T02:37:16.228Z,54.03
2022-12-11T02:39:43.923Z,54.54
2022-12-11T02:42:11.127Z,55.77
2022-12-11T02:44:38.845Z,58.00
2022-12-11T02:47:08.023Z,58.98
2022-12-11T02:49:34.977Z,59.24
2022-12-11T02:52:03.561Z,59.72
2022-12-11T02:54:32.731Z,61.19
2022-12-11T02:57:06.809Z,61.41
2022-12-11T02:59:36.612Z,63.65
2022-12-11T03:02:03.669Z,66.17
2022-12-11T03:04:30.683Z,61.24
2022-12-11T03:07:01.185Z,57.08
2022-12-11T03:09:28.002Z,53.54
2022-12-11T03:11:54.545Z,54.02
2022-12-11T03:14:20.873Z,55.63
2022-12-11T03:16:56.419Z,56.82
2022-12-11T03:19:41.874Z,58.72
2022-12-11T03:22:12.208Z,60.08
2022-12-11T03:25:02.140Z,60.70
2022-12-11T03:27:39.591Z,60.17
2022-12-11T03:30:17.778Z,61.46
2022-12-11T03:32:50.923Z,63.54
2022-12-11T03:35:34.973Z,65.20
2022-12-11T03:38:06.459Z,62.69
2022-12-11T03:40:35.082Z,56.58
2022-12-11T03:43:02.514Z,53.14
2022-12-11T03:45:29.632Z,53.81
2022-12-11T03:47:57.596Z,54.69
2022-12-11T03:50:25.980Z,55.34
2022-12-11T03:52:53.367Z,55.79
2022-12-11T03:55:21.075Z,56.71
2022-12-11T03:57:47.884Z,58.20
2022-12-11T04:00:17.422Z,59.84
2022-12-11T04:02:43.961Z,61.38
2022-12-11T04:05:11.376Z,61.50
2022-12-11T04:07:37.974Z,63.31
2022-12-11T04:10:05.894Z,68.00
2022-12-11T04:12:32.280Z,63.16
2022-12-11T04:15:01.617Z,54.87
2022-12-11T04:17:52.895Z,52.45
2022-12-11T04:20:38.316Z,54.25
2022-12-11T04:23:25.706Z,55.10
2022-12-11T04:25:52.045Z,55.46
2022-12-11T04:28:18.329Z,58.23
2022-12-11T04:30:48.899Z,59.71
2022-12-11T04:33:15.299Z,59.80
2022-12-11T04:35:41.622Z,60.50
2022-12-11T04:38:07.944Z,63.55
2022-12-11T04:40:34.283Z,66.66
2022-12-11T04:43:00.607Z,61.33
2022-12-11T04:45:26.943Z,55.33
2022-12-11T04:47:53.309Z,51.92
2022-12-11T04:50:19.708Z,53.70
2022-12-11T04:52:46.114Z,55.42
2022-12-11T04:55:12.986Z,56.95
2022-12-11T04:57:40.178Z,58.85
2022-12-11T05:00:10.195Z,59.13
2022-12-11T05:02:38.079Z,59.45
2022-12-11T05:05:05.843Z,61.44
2022-12-11T05:07:32.326Z,60.99
2022-12-11T05:09:58.671Z,62.86
2022-12-11T05:12:25.139Z,66.86
2022-12-11T05:14:54.957Z,64.48
2022-12-11T05:17:21.891Z,56.25
2022-12-11T05:19:49.544Z,53.51
2022-12-11T05:22:17.066Z,53.66
2022-12-11T05:24:44.312Z,55.61
2022-12-11T05:27:10.957Z,57.11
2022-12-11T05:29:37.332Z,58.02
2022-12-11T05:32:04.396Z,58.30
2022-12-11T05:34:30.876Z,59.30
2022-12-11T05:36:57.209Z,60.25
2022-12-11T05:39:23.622Z,60.86
2022-12-11T05:41:49.955Z,61.10
2022-12-11T05:44:16.255Z,61.67
2022-12-11T05:46:42.726Z,65.62
2022-12-11T05:49:09.672Z,66.38
2022-12-11T05:51:36.015Z,61.27
2022-12-11T05:54:02.681Z,55.34
2022-12-11T05:56:31.393Z,52.59
2022-12-11T05:58:59.569Z,53.38
2022-12-11T06:01:35.528Z,53.92
2022-12-11T06:04:02.312Z,54.31
2022-12-11T06:06:28.703Z,58.09
2022-12-11T06:08:57.858Z,59.21
2022-12-11T06:11:25.162Z,60.99
2022-12-11T06:13:52.137Z,60.83
2022-12-11T06:16:19.462Z,61.34
2022-12-11T06:18:46.140Z,65.63
2022-12-11T06:21:25.782Z,66.02
2022-12-11T06:23:53.748Z,61.82
2022-12-11T06:26:21.088Z,55.88
2022-12-11T06:28:48.033Z,52.65
2022-12-11T06:31:15.704Z,54.12
2022-12-11T06:33:42.873Z,54.61
2022-12-11T06:36:20.702Z,57.48
2022-12-11T06:38:47.626Z,56.87
2022-12-11T06:41:14.649Z,57.94
2022-12-11T06:43:42.385Z,59.05
2022-12-11T06:46:15.095Z,60.19
2022-12-11T06:48:42.601Z,61.49
2022-12-11T06:51:11.810Z,64.81
2022-12-11T06:53:38.912Z,67.26
2022-12-11T06:56:07.668Z,64.09
2022-12-11T06:58:35.541Z,56.76
2022-12-11T07:01:03.773Z,53.17
2022-12-11T07:03:30.409Z,53.04
2022-12-11T07:06:01.597Z,55.64
2022-12-11T07:08:28.783Z,57.14
2022-12-11T07:10:55.170Z,58.70
2022-12-11T07:13:21.832Z,59.17
2022-12-11T07:15:48.223Z,59.34
2022-12-11T07:18:14.547Z,61.29
2022-12-11T07:20:40.899Z,61.40
2022-12-11T07:23:07.453Z,61.76
2022-12-11T07:25:33.745Z,65.61
2022-12-11T07:28:00.037Z,66.69
2022-12-11T07:30:26.400Z,61.80
2022-12-11T07:32:52.771Z,53.92
2022-12-11T07:35:19.170Z,51.97
2022-12-11T07:37:45.511Z,52.46
2022-12-11T07:40:13.014Z,53.48
2022-12-11T07:42:45.834Z,55.61
2022-12-11T07:45:12.954Z,56.62
2022-12-11T07:47:39.533Z,58.69
2022-12-11T07:50:06.032Z,58.51
2022-12-11T07:52:33.278Z,61.50
2022-12-11T07:54:59.803Z,63.28
2022-12-11T07:57:27.070Z,64.73
2022-12-11T07:59:53.433Z,58.02
2022-12-11T08:02:19.812Z,52.68
2022-12-11T08:04:46.272Z,52.94
2022-12-11T08:07:12.709Z,54.31
2022-12-11T08:09:39.242Z,57.15
2022-12-11T08:12:05.644Z,58.92
2022-12-11T08:14:32.106Z,57.76
2022-12-11T08:16:59.534Z,57.98
2022-12-11T08:19:27.230Z,59.21
2022-12-11T08:21:53.657Z,59.18
2022-12-11T08:24:20.256Z,59.83
2022-12-11T08:26:47.703Z,60.26
2022-12-11T08:29:14.336Z,60.30
2022-12-11T08:31:41.525Z,60.97
2022-12-11T08:34:08.063Z,64.05
2022-12-11T08:36:34.436Z,66.99
2022-12-11T08:39:00.736Z,61.12
2022-12-11T08:41:28.916Z,53.51
2022-12-11T08:43:56.876Z,51.52
2022-12-11T08:46:25.218Z,53.65
2022-12-11T08:48:52.544Z,54.90
2022-12-11T08:51:20.456Z,56.96
2022-12-11T08:53:46.824Z,56.34
2022-12-11T08:56:15.996Z,58.97
2022-12-11T08:58:43.339Z,58.19
2022-12-11T09:01:23.622Z,58.62
2022-12-11T09:03:51.110Z,59.67
2022-12-11T09:06:20.250Z,62.02
2022-12-11T09:08:52.177Z,66.09
2022-12-11T09:11:22.350Z,60.29
2022-12-11T09:13:48.833Z,55.97
2022-12-11T09:16:17.199Z,54.97
2022-12-11T09:18:47.684Z,56.32
2022-12-11T09:21:16.552Z,58.39
2022-12-11T09:23:43.797Z,57.61
2022-12-11T09:26:12.721Z,58.01
2022-12-11T09:28:45.705Z,58.49
2022-12-11T09:31:15.544Z,59.41
2022-12-11T09:33:42.192Z,60.47
2022-12-11T09:36:09.378Z,59.85
2022-12-11T09:38:35.938Z,60.64
2022-12-11T09:41:20.889Z,61.96
2022-12-11T09:44:11.990Z,63.17
2022-12-11T09:46:40.294Z,61.82
2022-12-11T09:49:17.595Z,53.13
2022-12-11T09:51:51.693Z,50.65
2022-12-11T09:54:18.053Z,50.71
2022-12-11T09:56:59.635Z,52.84
2022-12-11T10:00:17.632Z,52.76
2022-12-11T10:02:55.690Z,55.43
2022-12-11T10:05:30.554Z,56.65
2022-12-11T10:08:08.652Z,57.48
2022-12-11T10:10:42.375Z,58.43
2022-12-11T10:13:36.432Z,59.10
2022-12-11T10:16:12.374Z,59.34
2022-12-11T10:18:39.542Z,59.39
2022-12-11T10:21:06.468Z,59.39
2022-12-11T10:23:42.646Z,59.44
2022-12-11T10:26:16.959Z,59.49
2022-12-11T10:28:43.691Z,60.31
2022-12-11T10:31:17.849Z,61.11
2022-12-11T10:33:59.135Z,60.77
2022-12-11T10:36:40.170Z,61.23
2022-12-11T10:39:15.139Z,61.35
2022-12-11T10:41:47.676Z,61.71
2022-12-11T10:44:24.694Z,61.88
2022-12-11T10:47:10.114Z,61.89
2022-12-11T10:49:38.413Z,61.91
2022-12-11T10:52:17.847Z,65.87
2022-12-11T10:54:48.129Z,63.89
2022-12-11T10:57:15.097Z,56.84
2022-12-11T10:59:49.381Z,52.33
2022-12-11T11:02:24.419Z,53.64
2022-12-11T11:04:51.509Z,54.72
2022-12-11T11:07:17.859Z,55.77
2022-12-11T11:09:44.608Z,56.83
2022-12-11T11:12:24.083Z,56.91
2022-12-11T11:15:01.576Z,58.54
2022-12-11T11:17:33.631Z,58.82
2022-12-11T11:20:06.728Z,59.52
2022-12-11T11:22:38.680Z,58.78
2022-12-11T11:25:05.809Z,59.07
2022-12-11T11:28:03.385Z,59.99
2022-12-11T11:30:40.080Z,60.92
2022-12-11T11:33:15.548Z,60.94
2022-12-11T11:35:52.439Z,60.73
2022-12-11T11:38:21.718Z,61.60
2022-12-11T11:41:03.902Z,61.24
2022-12-11T11:43:59.039Z,61.79
2022-12-11T11:46:35.758Z,62.06
2022-12-11T11:49:24.121Z,61.29
2022-12-11T11:52:03.701Z,61.96
2022-12-11T11:54:36.963Z,62.01
2022-12-11T11:57:13.353Z,63.90
2022-12-11T11:59:44.266Z,56.59
2022-12-11T12:02:15.996Z,52.92
2022-12-11T12:04:43.862Z,54.26
2022-12-11T12:07:24.106Z,56.02
2022-12-11T12:10:13.719Z,56.65
2022-12-11T12:12:52.058Z,57.27
2022-12-11T12:15:48.037Z,57.37
2022-12-11T12:18:42.573Z,58.14
2022-12-11T12:21:18.387Z,57.79
2022-12-11T12:23:53.401Z,59.35
2022-12-11T12:26:28.541Z,59.95
2022-12-11T12:29:20.895Z,59.92
2022-12-11T12:32:13.455Z,58.85
2022-12-11T12:34:45.811Z,59.98
2022-12-11T12:37:21.419Z,60.15
2022-12-11T12:40:00.370Z,59.55
2022-12-11T12:42:45.351Z,60.00
2022-12-11T12:45:14.930Z,60.08
2022-12-11T12:47:43.059Z,59.90
2022-12-11T12:50:21.370Z,59.92
2022-12-11T12:52:48.656Z,59.73
2022-12-11T12:55:22.329Z,60.64
2022-12-11T12:58:06.641Z,60.63
2022-12-11T13:00:36.040Z,60.92
2022-12-11T13:03:26.301Z,60.95
2022-12-11T13:06:02.577Z,60.97
2022-12-11T13:08:46.239Z,60.75
2022-12-11T13:11:15.739Z,60.62
2022-12-11T13:14:02.396Z,60.64
2022-12-11T13:16:39.972Z,61.08
2022-12-11T13:19:17.370Z,60.79
2022-12-11T13:21:57.383Z,61.34
2022-12-11T13:24:26.890Z,61.02
2022-12-11T13:26:53.526Z,61.43
2022-12-11T13:29:46.681Z,61.27
2022-12-11T13:32:12.944Z,61.18
2022-12-11T13:34:41.611Z,60.82
2022-12-11T13:37:35.737Z,60.64
2022-12-11T13:40:06.032Z,61.04
2022-12-11T13:42:47.620Z,60.67
2022-12-11T13:45:43.955Z,61.06
2022-12-11T13:48:47.155Z,60.84
2022-12-11T13:51:22.046Z,60.97
2022-12-11T13:53:48.909Z,60.61
2022-12-11T13:56:17.967Z,60.21
2022-12-11T13:58:44.733Z,60.30
2022-12-11T14:01:15.436Z,60.63
2022-12-11T14:03:54.776Z,60.97
2022-12-11T14:06:21.461Z,61.10
2022-12-11T14:08:50.137Z,61.23
2022-12-11T14:11:30.411Z,61.27
2022-12-11T14:13:59.482Z,61.76
2022-12-11T14:16:27.246Z,61.95
2022-12-11T14:18:57.431Z,62.95
2022-12-11T14:21:25.348Z,66.26
2022-12-11T14:23:53.935Z,64.20
2022-12-11T14:26:25.963Z,60.03
2022-12-11T14:28:52.862Z,51.21
2022-12-11T14:31:33.228Z,48.81
2022-12-11T14:34:07.601Z,51.07
2022-12-11T14:36:34.712Z,52.57
2022-12-11T14:39:06.968Z,54.26
2022-12-11T14:41:36.241Z,54.89
2022-12-11T14:44:04.651Z,55.38
2022-12-11T14:46:39.652Z,56.24
2022-12-11T14:49:17.360Z,56.63
2022-12-11T14:51:43.963Z,56.86
2022-12-11T14:54:32.597Z,58.08
2022-12-11T14:57:00.956Z,58.73
2022-12-11T14:59:32.088Z,59.46
2022-12-11T15:02:20.719Z,58.94
2022-12-11T15:05:00.795Z,59.71
2022-12-11T15:07:27.215Z,59.73
2022-12-11T15:09:53.687Z,59.14
2022-12-11T15:12:21.241Z,58.79
2022-12-11T15:14:56.808Z,59.80
2022-12-11T15:17:25.029Z,59.66
2022-12-11T15:19:54.345Z,60.07
2022-12-11T15:22:25.497Z,59.55
2022-12-11T15:24:53.388Z,59.70
2022-12-11T15:27:39.143Z,60.43
2022-12-11T15:30:18.011Z,60.38
2022-12-11T15:32:44.937Z,60.84
2022-12-11T15:35:25.876Z,60.89
2022-12-11T15:37:54.106Z,61.29
2022-12-11T15:40:21.371Z,61.39
2022-12-11T15:42:49.463Z,61.56
2022-12-11T15:45:18.489Z,61.77
2022-12-11T15:47:46.209Z,62.24
2022-12-11T15:50:21.920Z,63.73
2022-12-11T15:52:49.531Z,68.92
2022-12-11T15:55:17.075Z,62.69
2022-12-11T15:57:50.362Z,53.16
2022-12-11T16:00:18.714Z,51.39
2022-12-11T16:02:46.171Z,52.15
2022-12-11T16:05:14.010Z,52.94
2022-12-11T16:07:40.621Z,54.41
2022-12-11T16:10:07.893Z,55.66
2022-12-11T16:12:34.522Z,56.42
2022-12-11T16:15:01.112Z,57.18
2022-12-11T16:17:28.295Z,57.17
2022-12-11T16:19:55.256Z,57.55
2022-12-11T16:22:27.620Z,59.27
2022-12-11T16:24:54.384Z,59.35
2022-12-11T16:27:23.377Z,60.20
2022-12-11T16:29:50.653Z,60.36
2022-12-11T16:32:18.024Z,60.72
2022-12-11T16:34:44.375Z,61.50
2022-12-11T16:37:11.136Z,61.47
2022-12-11T16:39:38.179Z,62.07
2022-12-11T16:42:05.657Z,62.05
2022-12-11T16:44:32.228Z,61.90
2022-12-11T16:46:58.661Z,63.70
2022-12-11T16:49:25.193Z,66.84
2022-12-11T16:51:52.124Z,61.33
2022-12-11T16:54:18.776Z,54.85
2022-12-11T16:56:45.475Z,53.56
2022-12-11T16:59:12.210Z,54.75
2022-12-11T17:01:38.822Z,55.38
2022-12-11T17:04:06.020Z,56.12
2022-12-11T17:06:33.091Z,57.88
2022-12-11T17:09:00.081Z,59.51
2022-12-11T17:11:26.531Z,59.47
2022-12-11T17:13:58.161Z,60.53
2022-12-11T17:16:28.247Z,61.39
2022-12-11T17:18:56.164Z,63.73
2022-12-11T17:21:23.381Z,64.45
2022-12-11T17:23:50.180Z,61.34
2022-12-11T17:26:17.702Z,55.91
2022-12-11T17:28:44.803Z,54.01
2022-12-11T17:31:15.211Z,55.08
2022-12-11T17:33:43.596Z,55.80
2022-12-11T17:36:12.723Z,57.51
2022-12-11T17:38:39.193Z,59.15
2022-12-11T17:41:08.581Z,59.51
2022-12-11T17:43:35.346Z,59.83
2022-12-11T17:46:02.852Z,61.08
2022-12-11T17:48:29.561Z,61.12
2022-12-11T17:50:56.257Z,63.83
2022-12-11T17:53:23.431Z,66.88
2022-12-11T17:55:51.067Z,65.80
2022-12-11T17:58:21.171Z,61.93
2022-12-11T18:00:52.814Z,55.67
2022-12-11T18:03:20.158Z,53.13
2022-12-11T18:05:49.913Z,54.53
2022-12-11T18:08:18.806Z,55.52
2022-12-11T18:10:45.431Z,57.29
2022-12-11T18:13:12.291Z,58.82
2022-12-11T18:15:39.234Z,60.37
2022-12-11T18:18:06.712Z,61.33
2022-12-11T18:20:33.826Z,61.49
2022-12-11T18:23:00.599Z,62.82
2022-12-11T18:25:27.190Z,67.90
2022-12-11T18:27:57.021Z,65.98
2022-12-11T18:30:24.264Z,59.23
2022-12-11T18:32:51.694Z,53.73
2022-12-11T18:35:18.820Z,53.82
2022-12-11T18:37:45.596Z,55.68
2022-12-11T18:40:11.955Z,57.10
2022-12-11T18:42:38.293Z,58.73
2022-12-11T18:45:06.301Z,60.86
2022-12-11T18:47:32.831Z,60.87
2022-12-11T18:50:03.930Z,64.01
2022-12-11T18:52:34.058Z,66.32
2022-12-11T18:55:00.637Z,59.78
2022-12-11T18:57:27.047Z,55.85
2022-12-11T18:59:54.051Z,55.28
2022-12-11T19:02:21.921Z,56.76
2022-12-11T19:04:48.666Z,57.58
2022-12-11T19:07:15.421Z,59.53
2022-12-11T19:09:47.572Z,60.30
2022-12-11T19:12:14.645Z,61.71
2022-12-11T19:14:41.107Z,64.98
2022-12-11T19:17:07.460Z,66.50
2022-12-11T19:19:34.106Z,63.93
2022-12-11T19:22:00.461Z,58.88
2022-12-11T19:24:27.119Z,53.58
2022-12-11T19:26:53.588Z,54.17
2022-12-11T19:29:22.667Z,55.50
2022-12-11T19:31:49.336Z,56.34
2022-12-11T19:34:18.033Z,57.89
2022-12-11T19:36:44.444Z,60.03
2022-12-11T19:39:13.280Z,61.68
2022-12-11T19:41:40.821Z,64.79
2022-12-11T19:44:07.766Z,64.48
2022-12-11T19:46:34.526Z,58.70
2022-12-11T19:49:02.257Z,55.78
2022-12-11T19:51:35.739Z,56.44
2022-12-11T19:54:02.201Z,57.81
2022-12-11T19:56:29.054Z,59.14
2022-12-11T19:58:55.720Z,59.99
2022-12-11T20:01:25.819Z,61.24
2022-12-11T20:03:57.683Z,65.17
2022-12-11T20:06:26.619Z,66.93
2022-12-11T20:08:53.172Z,60.98
2022-12-11T20:11:19.642Z,55.08
2022-12-11T20:13:47.450Z,53.82
2022-12-11T20:16:15.084Z,54.04
2022-12-11T20:18:41.705Z,55.42
2022-12-11T20:21:11.101Z,57.22
2022-12-11T20:23:37.873Z,59.01
2022-12-11T20:26:12.747Z,59.60
2022-12-11T20:28:39.478Z,61.55
2022-12-11T20:31:07.721Z,65.41
2022-12-11T20:33:34.615Z,60.05
2022-12-11T20:36:05.221Z,56.72
2022-12-11T20:38:35.494Z,56.30
2022-12-11T20:41:05.640Z,57.61
2022-12-11T20:43:33.173Z,58.61
2022-12-11T20:45:59.624Z,60.63
2022-12-11T20:48:26.098Z,61.53
2022-12-11T20:50:52.474Z,66.16
2022-12-11T20:53:18.870Z,66.46
2022-12-11T20:55:45.188Z,59.81
2022-12-11T20:58:11.524Z,54.96
2022-12-11T21:00:38.930Z,53.65
2022-12-11T21:03:05.728Z,54.03
2022-12-11T21:05:32.157Z,55.38
2022-12-11T21:07:58.595Z,57.36
2022-12-11T21:10:25.235Z,58.51
2022-12-11T21:12:51.615Z,59.54
2022-12-11T21:15:18.124Z,60.87
2022-12-11T21:17:45.097Z,64.61
2022-12-11T21:20:11.542Z,65.69
2022-12-11T21:22:38.234Z,61.24
2022-12-11T21:25:05.708Z,54.21
2022-12-11T21:27:32.225Z,52.45
2022-12-11T21:29:58.679Z,53.79
2022-12-11T21:32:25.332Z,55.41
2022-12-11T21:34:54.709Z,56.15
2022-12-11T21:37:21.128Z,57.54
2022-12-11T21:39:47.472Z,58.13
2022-12-11T21:42:13.852Z,59.93
2022-12-11T21:45:31.504Z,63.86
2022-12-11T21:47:30.497Z,65.68
2022-12-11T21:49:57.333Z,58.40
2022-12-11T21:52:23.722Z,53.84
2022-12-11T21:54:50.065Z,54.01
2022-12-11T21:57:18.995Z,54.73
2022-12-11T21:59:49.159Z,56.11
2022-12-11T22:02:15.608Z,57.82
2022-12-11T22:04:42.020Z,58.82
2022-12-11T22:07:08.329Z,59.08
2022-12-11T22:09:34.799Z,59.10
2022-12-11T22:12:01.145Z,60.33
2022-12-11T22:14:30.064Z,60.81
2022-12-11T22:16:57.707Z,61.92
2022-12-11T22:19:27.845Z,67.39
2022-12-11T22:21:58.923Z,65.33
2022-12-11T22:24:25.258Z,59.59
2022-12-11T22:26:53.720Z,54.22
2022-12-11T22:29:20.188Z,52.36
2022-12-11T22:31:46.858Z,54.57
2022-12-11T22:34:13.496Z,54.76
2022-12-11T22:36:40.009Z,56.05
2022-12-11T22:39:06.471Z,56.93
2022-12-11T22:41:33.181Z,57.76
2022-12-11T22:43:59.637Z,58.72
2022-12-11T22:46:28.261Z,60.59
2022-12-11T22:48:54.651Z,61.31
2022-12-11T22:51:22.256Z,61.16
2022-12-11T22:53:48.738Z,63.85
2022-12-11T22:56:15.160Z,67.21
2022-12-11T22:58:41.858Z,64.01
2022-12-11T23:01:10.695Z,59.02
2022-12-11T23:03:37.276Z,52.96
2022-12-11T23:06:08.306Z,52.04
2022-12-11T23:08:34.994Z,53.13
2022-12-11T23:11:02.569Z,54.74
2022-12-11T23:13:29.660Z,56.07
2022-12-11T23:15:56.129Z,56.39
2022-12-11T23:18:22.485Z,57.78
2022-12-11T23:20:49.208Z,58.32
2022-12-11T23:23:15.546Z,59.15
2022-12-11T23:25:41.882Z,60.41
2022-12-11T23:28:08.218Z,63.94
2022-12-11T23:30:34.650Z,66.23
2022-12-11T23:33:01.137Z,62.76
2022-12-11T23:35:27.528Z,55.91
2022-12-11T23:37:53.852Z,52.55
2022-12-11T23:40:20.203Z,53.74
2022-12-11T23:42:46.558Z,54.17
2022-12-11T23:45:13.054Z,55.34
2022-12-11T23:47:39.651Z,55.91
2022-12-11T23:50:06.512Z,58.33
2022-12-11T23:52:33.032Z,58.73
2022-12-11T23:54:59.363Z,59.96
2022-12-11T23:57:25.872Z,59.98
2022-12-11T23:59:52.158Z,61.69
